createdAt,value
2023-01-29T00:02:15.436Z,99200.03
2023-01-29T00:05:27.988Z,99213.19
2023-01-29T00:08:36.478Z,99199.34
2023-01-29T00:11:45.913Z,99210.78
2023-01-29T00:14:51.759Z,99211.53
2023-01-29T00:17:58.264Z,99206.84
2023-01-29T00:21:04.043Z,99208.97
2023-01-29T00:24:11.363Z,99219.66
2023-01-29T00:27:19.741Z,99228.97
2023-01-29T00:30:28.947Z,99228.03
2023-01-29T00:33:34.761Z,99234.31
2023-01-29T00:36:41.540Z,99229.06
2023-01-29T00:39:48.428Z,99230.31
2023-01-29T00:43:10.108Z,99228.41
2023-01-29T00:46:17.560Z,99227.41
2023-01-29T00:49:24.669Z,99242.41
2023-01-29T00:52:31.193Z,99232.31
2023-01-29T00:55:37.867Z,99235.84
2023-01-29T00:58:46.249Z,99244.75
2023-01-29T01:02:05.303Z,99236.25
2023-01-29T01:05:18.139Z,99239.06
2023-01-29T01:08:37.289Z,99249.25
2023-01-29T01:11:43.035Z,99249.09
2023-01-29T01:14:52.654Z,99250.28
2023-01-29T01:18:01.465Z,99253.88
2023-01-29T01:21:09.238Z,99251.16
2023-01-29T01:24:15.632Z,99251.44
2023-01-29T01:27:22.877Z,99243.06
2023-01-29T01:30:33.201Z,99241.69
2023-01-29T01:33:40.693Z,99230.28
2023-01-29T01:36:46.490Z,99235.25
2023-01-29T01:39:57.964Z,99238.25
2023-01-29T01:43:05.443Z,99235.16
2023-01-29T01:46:15.226Z,99223.25
2023-01-29T01:49:24.506Z,99246.09
2023-01-29T01:52:35.259Z,99234.69
2023-01-29T01:55:51.749Z,99224.59
2023-01-29T01:59:02.368Z,99231.56
2023-01-29T02:02:23.829Z,99223.69
2023-01-29T02:05:46.095Z,99222.59
2023-01-29T02:09:13.921Z,99207.94
2023-01-29T02:12:22.865Z,99204.84
2023-01-29T02:15:28.875Z,99197.66
2023-01-29T02:18:39.673Z,99216.59
2023-01-29T02:22:25.932Z,99207.84
2023-01-29T02:26:13.456Z,99205.59
2023-01-29T02:29:35.911Z,99197.44
2023-01-29T02:32:58.872Z,99188.59
2023-01-29T02:36:26.035Z,99186.69
2023-01-29T02:39:42.444Z,99194.53
2023-01-29T02:43:06.542Z,99181.44
2023-01-29T02:46:31.831Z,99175.69
2023-01-29T02:49:50.372Z,99197.38
2023-01-29T02:53:09.597Z,99206.75
2023-01-29T02:56:29.687Z,99210.00
2023-01-29T02:59:48.027Z,99215.75
2023-01-29T03:03:06.857Z,99216.81
2023-01-29T03:06:24.399Z,99224.34
2023-01-29T03:09:42.584Z,99220.00
2023-01-29T03:12:59.954Z,99218.75
2023-01-29T03:16:19.230Z,99214.50
2023-01-29T03:19:40.010Z,99222.31
2023-01-29T03:23:07.949Z,99218.50
2023-01-29T03:26:33.728Z,99239.63
2023-01-29T03:29:58.847Z,99227.63
2023-01-29T03:33:23.766Z,99240.69
2023-01-29T03:36:45.840Z,99242.53
2023-01-29T03:39:55.752Z,99234.72
2023-01-29T03:43:14.882Z,99232.31
2023-01-29T03:46:34.332Z,99228.41
2023-01-29T03:50:00.997Z,99235.88
2023-01-29T03:53:24.074Z,99223.56
2023-01-29T03:56:52.736Z,99214.56
2023-01-29T04:00:17.495Z,99206.81
2023-01-29T04:03:43.083Z,99201.31
2023-01-29T04:06:56.916Z,99200.16
2023-01-29T04:10:15.229Z,99204.50
2023-01-29T04:13:22.828Z,99200.91
2023-01-29T04:16:39.227Z,99196.16
2023-01-29T04:19:54.855Z,99201.94
2023-01-29T04:23:01.491Z,99189.59
2023-01-29T04:26:42.139Z,99190.91
2023-01-29T04:30:13.953Z,99176.59
2023-01-29T04:33:40.209Z,99170.84
2023-01-29T04:37:05.478Z,99157.78
2023-01-29T04:40:27.219Z,99143.63
2023-01-29T04:43:48.940Z,99138.03
2023-01-29T04:47:15.829Z,99140.88
2023-01-29T04:50:37.182Z,99136.53
2023-01-29T04:54:03.096Z,99134.03
2023-01-29T04:57:25.702Z,99128.72
2023-01-29T05:00:45.299Z,99130.88
2023-01-29T05:03:58.189Z,99130.22
2023-01-29T05:07:09.969Z,99127.84
2023-01-29T05:10:29.280Z,99134.44
2023-01-29T05:13:45.103Z,99134.44
2023-01-29T05:17:01.405Z,99137.00
2023-01-29T05:20:09.071Z,99138.06
2023-01-29T05:23:21.286Z,99138.88
2023-01-29T05:26:39.857Z,99148.00
2023-01-29T05:29:50.299Z,99138.25
2023-01-29T05:32:58.658Z,99152.03
2023-01-29T05:36:06.943Z,99159.25
2023-01-29T05:39:12.852Z,99159.13
2023-01-29T05:42:22.725Z,99154.34
2023-01-29T05:45:29.050Z,99136.75
2023-01-29T05:48:38.360Z,99135.50
2023-01-29T05:51:44.306Z,99142.63
2023-01-29T05:54:50.870Z,99144.75
2023-01-29T05:57:56.635Z,99146.59
2023-01-29T06:01:13.338Z,99148.16
2023-01-29T06:04:22.205Z,99147.69
2023-01-29T06:07:29.802Z,99158.16
2023-01-29T06:10:36.276Z,99151.84
2023-01-29T06:13:43.627Z,99157.44
2023-01-29T06:16:49.559Z,99159.53
2023-01-29T06:19:58.965Z,99155.59
2023-01-29T06:23:05.151Z,99158.78
2023-01-29T06:26:17.302Z,99162.59
2023-01-29T06:29:23.086Z,99165.28
2023-01-29T06:32:30.632Z,99172.63
2023-01-29T06:35:39.145Z,99168.44
2023-01-29T06:38:45.771Z,99181.19
2023-01-29T06:41:51.767Z,99172.44
2023-01-29T06:44:58.419Z,99173.19
2023-01-29T06:48:04.124Z,99169.50
2023-01-29T06:51:14.857Z,99166.03
2023-01-29T06:54:20.650Z,99167.75
2023-01-29T06:57:27.638Z,99167.59
2023-01-29T07:00:33.645Z,99173.25
2023-01-29T07:03:41.811Z,99170.94
2023-01-29T07:06:50.250Z,99169.53
2023-01-29T07:09:56.747Z,99173.94
2023-01-29T07:13:03.175Z,99171.09
2023-01-29T07:16:10.540Z,99184.09
2023-01-29T07:19:16.549Z,99174.69
2023-01-29T07:22:25.844Z,99179.78
2023-01-29T07:25:31.713Z,99190.25
2023-01-29T07:28:40.849Z,99197.56
2023-01-29T07:31:46.855Z,99197.06
2023-01-29T07:34:53.519Z,99196.56
2023-01-29T07:38:02.107Z,99199.97
2023-01-29T07:41:09.315Z,99198.47
2023-01-29T07:44:18.273Z,99206.22
2023-01-29T07:47:24.880Z,99213.03
2023-01-29T07:50:31.404Z,99207.28
2023-01-29T07:53:40.760Z,99205.47
2023-01-29T07:56:46.610Z,99207.03
2023-01-29T07:59:53.339Z,99209.63
2023-01-29T08:03:07.026Z,99223.72
2023-01-29T08:06:13.861Z,99235.31
2023-01-29T08:09:22.339Z,99225.81
2023-01-29T08:12:29.064Z,99228.66
2023-01-29T08:15:39.215Z,99239.63
2023-01-29T08:18:47.967Z,99241.38
2023-01-29T08:21:53.709Z,99236.66
2023-01-29T08:25:08.318Z,99239.75
2023-01-29T08:28:14.944Z,99237.00
2023-01-29T08:31:23.422Z,99236.75
2023-01-29T08:34:29.272Z,99240.94
2023-01-29T08:37:36.207Z,99240.50
2023-01-29T08:40:47.415Z,99241.34
2023-01-29T08:43:53.953Z,99239.25
2023-01-29T08:46:59.785Z,99240.00
2023-01-29T08:50:06.542Z,99228.59
2023-01-29T08:53:13.146Z,99248.91
2023-01-29T08:56:22.340Z,99246.19
2023-01-29T08:59:28.283Z,99233.94
2023-01-29T09:02:35.039Z,99237.16
2023-01-29T09:05:43.310Z,99235.25
2023-01-29T09:08:51.332Z,99229.34
2023-01-29T09:11:59.923Z,99213.44
2023-01-29T09:15:10.661Z,99211.72
2023-01-29T09:18:25.058Z,99199.66
2023-01-29T09:21:34.801Z,99207.69
2023-01-29T09:24:40.626Z,99197.81
2023-01-29T09:27:49.751Z,99206.13
2023-01-29T09:30:55.741Z,99207.16
2023-01-29T09:34:02.351Z,99206.31
2023-01-29T09:37:08.323Z,99200.88
2023-01-29T09:40:29.420Z,99210.84
2023-01-29T09:43:52.203Z,99215.56
2023-01-29T09:47:05.281Z,99223.84
2023-01-29T09:50:21.359Z,99220.06
2023-01-29T09:53:42.494Z,99208.13
2023-01-29T09:56:51.374Z,99203.03
2023-01-29T10:00:03.042Z,99202.94
2023-01-29T10:03:38.990Z,99195.72
2023-01-29T10:07:10.529Z,99195.53
2023-01-29T10:10:46.494Z,99174.88
2023-01-29T10:14:14.702Z,99154.63
2023-01-29T10:17:53.319Z,99156.66
2023-01-29T10:21:27.790Z,99150.28
2023-01-29T10:24:44.724Z,99150.56
2023-01-29T10:27:58.172Z,99142.06
2023-01-29T10:31:18.812Z,99132.91
2023-01-29T10:34:46.092Z,99128.69
2023-01-29T10:37:56.885Z,99109.06
2023-01-29T10:41:52.536Z,99107.41
2023-01-29T10:45:29.141Z,99097.28
2023-01-29T10:48:58.297Z,99096.53
2023-01-29T10:52:29.269Z,99086.81
2023-01-29T10:55:54.141Z,99082.41
2023-01-29T10:59:08.105Z,99079.34
2023-01-29T11:02:21.480Z,99067.22
2023-01-29T11:05:37.550Z,99068.16
2023-01-29T11:08:59.049Z,99057.44
2023-01-29T11:12:13.633Z,99044.44
2023-01-29T11:15:29.132Z,99040.00
2023-01-29T11:18:57.733Z,99039.03
2023-01-29T11:22:05.089Z,99037.16
2023-01-29T11:25:21.764Z,99030.44
2023-01-29T11:28:44.275Z,99016.47
2023-01-29T11:31:51.256Z,99008.53
2023-01-29T11:35:04.465Z,99002.91
2023-01-29T11:38:22.527Z,99013.75
2023-01-29T11:41:31.744Z,99010.31
2023-01-29T11:44:44.991Z,99009.50
2023-01-29T11:47:55.745Z,99008.69
2023-01-29T11:51:06.481Z,99003.28
2023-01-29T11:54:22.724Z,99011.41
2023-01-29T11:57:38.887Z,99014.56
2023-01-29T12:00:55.504Z,99010.50
2023-01-29T12:04:02.877Z,99014.91
2023-01-29T12:07:18.948Z,99011.66
2023-01-29T12:10:37.320Z,99013.38
2023-01-29T12:13:47.267Z,99006.00
2023-01-29T12:17:04.413Z,99008.97
2023-01-29T12:20:21.403Z,99006.81
2023-01-29T12:23:41.848Z,98998.13
2023-01-29T12:26:58.186Z,98977.47
2023-01-29T12:30:22.577Z,98986.31
2023-01-29T12:33:42.411Z,98975.53
2023-01-29T12:36:59.639Z,98980.31
2023-01-29T12:40:13.891Z,98970.41
2023-01-29T12:43:25.453Z,98968.44
2023-01-29T12:46:46.655Z,98959.59
2023-01-29T12:50:04.829Z,98951.97
2023-01-29T12:53:29.785Z,98965.16
2023-01-29T12:56:42.493Z,98956.66
2023-01-29T12:59:58.244Z,98953.78
2023-01-29T13:03:24.081Z,98949.63
2023-01-29T13:06:42.594Z,98943.22
2023-01-29T13:10:00.439Z,98940.88
2023-01-29T13:13:19.463Z,98933.84
2023-01-29T13:16:34.626Z,98944.34
2023-01-29T13:19:53.317Z,98939.88
2023-01-29T13:23:13.307Z,98934.56
2023-01-29T13:26:22.897Z,98939.16
2023-01-29T13:29:33.292Z,98924.41
2023-01-29T13:32:40.403Z,98928.69
2023-01-29T13:35:50.135Z,98922.34
2023-01-29T13:39:09.191Z,98932.41
2023-01-29T13:42:24.146Z,98929.19
2023-01-29T13:45:45.188Z,98921.72
2023-01-29T13:48:58.362Z,98913.53
2023-01-29T13:52:30.974Z,98911.16
2023-01-29T13:55:40.690Z,98910.44
2023-01-29T13:58:59.167Z,98901.72
2023-01-29T14:02:22.135Z,98897.59
2023-01-29T14:05:45.189Z,98880.25
2023-01-29T14:08:53.635Z,98888.03
2023-01-29T14:12:00.330Z,98899.03
2023-01-29T14:15:30.862Z,98882.56
2023-01-29T14:18:48.067Z,98895.09
2023-01-29T14:21:54.437Z,98889.19
2023-01-29T14:25:08.954Z,98887.75
2023-01-29T14:28:33.889Z,98891.06
2023-01-29T14:31:46.871Z,98881.53
2023-01-29T14:35:02.773Z,98889.34
2023-01-29T14:38:17.151Z,98892.66
2023-01-29T14:41:34.392Z,98897.91
2023-01-29T14:45:13.102Z,98898.81
2023-01-29T14:48:41.754Z,98896.22
2023-01-29T14:51:50.076Z,98898.44
2023-01-29T14:55:04.548Z,98896.31
2023-01-29T14:58:22.155Z,98892.94
2023-01-29T15:01:37.221Z,98891.13
2023-01-29T15:04:52.993Z,98893.09
2023-01-29T15:08:09.468Z,98901.03
2023-01-29T15:11:36.590Z,98902.03
2023-01-29T15:14:58.748Z,98897.06
2023-01-29T15:18:17.737Z,98903.25
2023-01-29T15:21:23.941Z,98882.56
2023-01-29T15:24:31.074Z,98877.56
2023-01-29T15:27:38.321Z,98880.06
2023-01-29T15:30:49.274Z,98879.25
2023-01-29T15:34:00.443Z,98872.16
2023-01-29T15:37:06.974Z,98882.69
2023-01-29T15:40:22.092Z,98885.25
2023-01-29T15:43:32.277Z,98886.09
2023-01-29T15:46:45.594Z,98872.06
2023-01-29T15:49:52.797Z,98878.34
2023-01-29T15:53:15.239Z,98870.97
2023-01-29T15:56:29.031Z,98852.34
2023-01-29T15:59:51.858Z,98852.06
2023-01-29T16:03:03.151Z,98844.78
2023-01-29T16:06:12.285Z,98850.22
2023-01-29T16:09:26.339Z,98857.78
2023-01-29T16:12:32.371Z,98854.38
2023-01-29T16:15:57.230Z,98848.09
2023-01-29T16:19:17.329Z,98852.44
2023-01-29T16:22:25.483Z,98852.06
2023-01-29T16:25:34.180Z,98839.06
2023-01-29T16:28:44.782Z,98836.56
2023-01-29T16:32:00.666Z,98836.19
2023-01-29T16:35:18.594Z,98835.34
2023-01-29T16:38:35.311Z,98836.09
2023-01-29T16:41:43.570Z,98836.38
2023-01-29T16:44:54.467Z,98841.75
2023-01-29T16:48:22.033Z,98838.69
2023-01-29T16:51:34.668Z,98835.84
2023-01-29T16:54:46.271Z,98828.72
2023-01-29T16:57:57.755Z,98837.03
2023-01-29T17:01:11.342Z,98828.63
2023-01-29T17:04:21.770Z,98838.31
2023-01-29T17:07:32.627Z,98838.69
2023-01-29T17:10:38.911Z,98840.22
2023-01-29T17:13:49.028Z,98841.34
2023-01-29T17:16:59.601Z,98834.09
2023-01-29T17:20:18.556Z,98827.25
2023-01-29T17:23:26.951Z,98829.28
2023-01-29T17:26:35.209Z,98827.88
2023-01-29T17:29:41.781Z,98832.97
2023-01-29T17:32:48.566Z,98837.03
2023-01-29T17:35:57.080Z,98816.47
2023-01-29T17:39:17.967Z,98827.59
2023-01-29T17:42:23.637Z,98821.69
2023-01-29T17:45:30.586Z,98814.91
2023-01-29T17:48:36.394Z,98807.91
2023-01-29T17:51:44.966Z,98806.97
2023-01-29T17:54:53.328Z,98793.59
2023-01-29T17:58:00.256Z,98789.81
2023-01-29T18:01:06.123Z,98793.31
2023-01-29T18:04:12.973Z,98780.03
2023-01-29T18:07:18.930Z,98799.03
2023-01-29T18:10:28.614Z,98797.38
2023-01-29T18:13:36.308Z,98796.09
2023-01-29T18:16:43.172Z,98810.56
2023-01-29T18:19:51.207Z,98802.81
2023-01-29T18:22:58.030Z,98794.13
2023-01-29T18:26:07.945Z,98787.41
2023-01-29T18:29:14.733Z,98790.72
2023-01-29T18:32:20.534Z,98773.31
2023-01-29T18:35:30.574Z,98768.59
2023-01-29T18:38:36.600Z,98778.19
2023-01-29T18:41:45.909Z,98775.16
2023-01-29T18:44:52.030Z,98765.66
2023-01-29T18:47:58.930Z,98772.66
2023-01-29T18:51:05.057Z,98773.41
2023-01-29T18:54:15.667Z,98739.13
2023-01-29T18:58:29.356Z,98782.44
2023-01-29T19:00:51.061Z,98760.84
2023-01-29T19:03:59.365Z,98769.63
2023-01-29T19:07:07.709Z,98753.69
2023-01-29T19:10:17.274Z,98764.44
2023-01-29T19:13:27.074Z,98761.19
2023-01-29T19:16:33.086Z,98752.94
2023-01-29T19:19:39.667Z,98746.19
2023-01-29T19:22:45.631Z,98749.16
2023-01-29T19:25:52.451Z,98738.53
2023-01-29T19:29:01.178Z,98741.56
2023-01-29T19:32:09.070Z,98744.44
2023-01-29T19:35:15.134Z,98743.78
2023-01-29T19:38:21.933Z,98741.50
2023-01-29T19:41:28.007Z,98737.25
2023-01-29T19:44:39.096Z,98742.50
2023-01-29T19:47:46.778Z,98741.31
2023-01-29T19:50:58.249Z,98744.44
2023-01-29T19:54:04.336Z,98742.25
2023-01-29T19:57:11.335Z,98740.47
2023-01-29T20:00:24.035Z,98734.19
2023-01-29T20:03:32.164Z,98727.19
2023-01-29T20:06:38.242Z,98717.81
2023-01-29T20:09:45.008Z,98722.47
2023-01-29T20:12:51.004Z,98719.28
2023-01-29T20:16:03.131Z,98717.94
2023-01-29T20:19:14.269Z,98718.88
2023-01-29T20:22:21.648Z,98725.03
2023-01-29T20:25:27.616Z,98713.53
2023-01-29T20:28:38.139Z,98721.84
2023-01-29T20:31:53.899Z,98722.13
2023-01-29T20:35:00.614Z,98709.50
2023-01-29T20:38:08.372Z,98717.97
2023-01-29T20:41:19.427Z,98717.97
2023-01-29T20:44:25.389Z,98716.94
2023-01-29T20:47:36.645Z,98706.53
2023-01-29T20:50:44.266Z,98710.50
2023-01-29T20:53:51.932Z,98702.44
2023-01-29T20:56:58.119Z,98711.13
2023-01-29T21:00:05.346Z,98705.13
2023-01-29T21:03:14.160Z,98700.13
2023-01-29T21:06:22.740Z,98693.50
2023-01-29T21:09:28.615Z,98688.81
2023-01-29T21:12:38.198Z,98684.66
2023-01-29T21:15:46.995Z,98672.06
2023-01-29T21:18:59.699Z,98655.09
2023-01-29T21:22:07.118Z,98637.81
2023-01-29T21:25:15.032Z,98654.38
2023-01-29T21:28:22.177Z,98646.09
2023-01-29T21:31:28.868Z,98644.78
2023-01-29T21:34:37.599Z,98635.81
2023-01-29T21:37:45.167Z,98636.13
2023-01-29T21:40:51.263Z,98631.59
2023-01-29T21:43:58.161Z,98636.13
2023-01-29T21:47:12.564Z,98627.56
2023-01-29T21:50:23.541Z,98625.81
2023-01-29T21:53:29.757Z,98619.16
2023-01-29T21:56:36.587Z,98615.56
2023-01-29T21:59:42.510Z,98605.53
2023-01-29T22:02:51.415Z,98598.19
2023-01-29T22:06:00.011Z,98591.47
2023-01-29T22:09:09.644Z,98600.84
2023-01-29T22:12:15.617Z,98591.16
2023-01-29T22:15:23.876Z,98595.94
2023-01-29T22:18:30.570Z,98587.47
2023-01-29T22:21:40.065Z,98576.13
2023-01-29T22:24:46.804Z,98565.53
2023-01-29T22:27:53.509Z,98562.22
2023-01-29T22:31:04.827Z,98554.31
2023-01-29T22:34:12.897Z,98548.53
2023-01-29T22:37:21.406Z,98535.78
2023-01-29T22:40:28.127Z,98530.16
2023-01-29T22:43:34.171Z,98527.19
2023-01-29T22:46:40.873Z,98521.84
2023-01-29T22:49:50.193Z,98531.06
2023-01-29T22:52:59.551Z,98517.97
2023-01-29T22:56:05.526Z,98523.13
2023-01-29T22:59:13.902Z,98513.53
2023-01-29T23:02:19.696Z,98508.63
2023-01-29T23:05:26.454Z,98494.28
2023-01-29T23:08:36.254Z,98493.88
2023-01-29T23:11:42.809Z,98484.81
2023-01-29T23:14:48.711Z,98492.31
2023-01-29T23:17:55.322Z,98494.22
2023-01-29T23:21:01.274Z,98481.22
2023-01-29T23:24:13.209Z,98476.78
2023-01-29T23:27:19.183Z,98458.75
2023-01-29T23:30:25.802Z,98462.84
2023-01-29T23:33:31.909Z,98450.56
2023-01-29T23:36:38.485Z,98439.53
2023-01-29T23:39:46.909Z,98430.66
2023-01-29T23:42:56.173Z,98423.53
2023-01-29T23:46:02.514Z,98418.78
2023-01-29T23:49:09.314Z,98410.41
2023-01-29T23:52:15.186Z,98404.53
2023-01-29T23:55:24.581Z,98405.44
2023-01-29T23:58:31.903Z,98399.94
